• Join FlightAware (Why Join?)
  • Login
  • US Flag 
11:59AM EDT


 

Airport Tracker/Info


-or-


 

Live Flight TrackerFlight Track Log ✈ TAM8042 ✈ 08-Sep-2013 ✈ SBBR / BSB - KMIA

Flight Track Log - Related Links

Times and Time Zones

All times are in EDT time to prevent confusion due to time zone crossing. See the TAM8042 flight status page for this flight to view local times or setup timezone preferences in your user account.

Time Position Orientation Groundspeed Altitude Reporting Facility
EDT Latitude Longitude Course Direction KTS MPH feet Rate Location/Type
10:30PM -15.8790 -47.9060 125° Southeast 183 211 3,500  Level FlightAware
10:30PM -15.8780 -47.8900 86° East 159 183 4,700 2,400 Climbing FlightAware
10:31PM -15.8840 -47.8690 107° East 170 196 5,500 1,320 Climbing FlightAware
10:31PM -15.8970 -47.8580 141° Southeast 191 220 5,800 1,020 Climbing FlightAware
10:31PM -15.9090 -47.8500 147° Southeast 206 237 6,100 1,680 Climbing FlightAware
10:32PM -15.9250 -47.8390 147° Southeast 206 237 6,800 1,860 Climbing FlightAware
10:32PM -15.9340 -47.8280 130° Southeast 200 230 7,200 1,500 Climbing FlightAware
10:32PM -15.9350 -47.8230 102° East 198 228 7,300 1,200 Climbing FlightAware
10:32PM -15.9360 -47.8190 105° East 197 227 7,400 1,680 Climbing FlightAware
10:32PM -15.9270 -47.8020 61° Northeast 202 232 8,000 1,800 Climbing FlightAware
10:32PM -15.9180 -47.7980 23° Northeast 209 241 8,300 1,200 Climbing FlightAware
10:33PM -15.9090 -47.7970 North 219 252 8,400 780 Climbing FlightAware
10:33PM -15.8880 -47.7940 North 244 281 8,700 900 Climbing FlightAware
10:33PM -15.8640 -47.7910 North 268 308 9,000 1,320 Climbing FlightAware
10:34PM -15.8380 -47.7880 North 283 326 9,600 1,620 Climbing FlightAware
10:34PM -15.7900 -47.7820 North 310 357 10,500 1,320 Climbing FlightAware
10:35PM -15.7370 -47.7770 North 342 394 11,200 1,620 Climbing FlightAware
10:35PM -15.6890 -47.7820 354° North 363 418 12,300 2,580 Climbing FlightAware
10:36PM -15.6390 -47.8130 329° Northwest 362 417 14,000 2,400 Climbing FlightAware
10:37PM -15.5790 -47.8500 329° Northwest 374 430 15,300 1,980 Climbing FlightAware
10:37PM -15.5260 -47.8820 330° Northwest 378 435 16,500 2,100 Climbing FlightAware
10:38PM -15.4730 -47.9130 331° Northwest 379 436 17,800 2,100 Climbing FlightAware
10:38PM -15.4190 -47.9450 330° Northwest 381 438 19,000 2,160 Climbing FlightAware
10:39PM -15.3660 -47.9770 330° Northwest 378 435 20,300 1,920 Climbing FlightAware
10:39PM -15.3130 -48.0080 331° Northwest 381 438 21,300 1,500 Climbing FlightAware
10:40PM -15.2580 -48.0410 330° Northwest 388 447 22,100 1,320 Climbing FlightAware
10:41PM -15.2050 -48.0720 331° Northwest 392 451 22,900 1,500 Climbing FlightAware
10:41PM -15.1490 -48.1060 330° Northwest 391 450 23,900 1,620 Climbing FlightAware
10:42PM -15.0930 -48.1390 330° Northwest 394 453 24,800 1,440 Climbing FlightAware
10:42PM -15.0370 -48.1720 330° Northwest 397 457 25,600 1,260 Climbing FlightAware
10:43PM -14.9810 -48.2050 330° Northwest 403 464 26,300 1,260 Climbing FlightAware
10:44PM -14.9240 -48.2390 330° Northwest 405 466 27,100 1,260 Climbing FlightAware
10:44PM -14.8670 -48.2730 330° Northwest 407 468 27,800 1,200 Climbing FlightAware
10:45PM -14.8110 -48.3050 331° Northwest 408 470 28,500 1,140 Climbing FlightAware
10:45PM -14.7460 -48.3440 330° Northwest 410 472 29,200 1,020 Climbing FlightAware
10:46PM -14.6960 -48.3730 331° Northwest 415 478 29,700 960 Climbing FlightAware
10:46PM -14.6370 -48.4080 330° Northwest 418 481 30,300 960 Climbing FlightAware
10:47PM -14.5710 -48.4470 330° Northwest 423 487 30,900 840 Climbing FlightAware
10:48PM -14.5190 -48.4780 330° Northwest 426 490 31,300 780 Climbing FlightAware
10:48PM -14.4590 -48.5130 331° Northwest 429 494 31,800 840 Climbing FlightAware
10:49PM -14.3890 -48.5540 330° Northwest 431 496 32,400 840 Climbing FlightAware
10:49PM -14.3280 -48.5900 330° Northwest 435 501 32,900 720 Climbing FlightAware
10:50PM -14.2760 -48.6210 330° Northwest 438 504 33,200 720 Climbing FlightAware
10:51PM -14.2040 -48.6630 331° Northwest 439 505 33,800 960 Climbing FlightAware
10:51PM -14.1440 -48.6980 331° Northwest 436 502 34,400 660 Climbing FlightAware
10:52PM -14.0900 -48.7300 330° Northwest 435 501 34,600 120 Climbing FlightAware
10:52PM -14.0350 -48.7630 330° Northwest 435 501 34,600 1,020 Level FlightAware
10:53PM -13.9580 -48.8080 330° Northwest 433 498 35,900 1,260 Climbing FlightAware
10:54PM -13.8640 -48.8620 331° Northwest 433 498 36,500 480 Climbing FlightAware
10:54PM -13.8110 -48.8940 330° Northwest 433 498 36,600 480 Climbing FlightAware
10:55PM -13.7270 -48.9430 330° Northwest 433 498 37,200 420 Climbing FlightAware
10:56PM -13.6740 -48.9740 330° Northwest 433 498 37,200  Level FlightAware
10:56PM -13.6210 -49.0060 330° Northwest 433 498 37,200  Level FlightAware
10:57PM -13.5670 -49.0380 330° Northwest 433 498 37,200  Level FlightAware
10:58PM -13.5140 -49.0700 330° Northwest 433 498 37,200  Level FlightAware
10:58PM -13.4600 -49.1010 331° Northwest 433 498 37,200  Level FlightAware
10:59PM -13.4060 -49.1340 329° Northwest 433 498 37,200  Level FlightAware
11:00PM -13.3530 -49.1650 330° Northwest 433 498 37,200  Level FlightAware
11:00PM -13.3000 -49.1970 330° Northwest 433 498 37,200  Level FlightAware
11:01PM -13.2470 -49.2280 330° Northwest 433 498 37,200  Level FlightAware
11:01PM -13.1940 -49.2600 330° Northwest 433 498 37,200  Level FlightAware
11:02PM -13.1400 -49.2910 331° Northwest 433 498 37,200  Level FlightAware
11:03PM -13.0860 -49.3230 330° Northwest 433 498 37,200  Level FlightAware
11:03PM -13.0330 -49.3550 330° Northwest 433 498 37,200  Level FlightAware
11:04PM -12.9800 -49.3860 330° Northwest 433 498 37,200  Level FlightAware
11:04PM -12.9250 -49.4190 330° Northwest 433 498 37,200  Level FlightAware
11:07PM -12.7224 -49.5797 322° Northwest  Level Estimated
11:08PM -12.6288 -49.6538 322° Northwest  Level Estimated
11:09PM -12.5352 -49.7279 322° Northwest  Level Estimated
11:10PM -12.4416 -49.8018 322° Northwest  Level Estimated
11:11PM -12.3480 -49.8758 322° Northwest  Level Estimated
11:12PM -12.2544 -49.9496 322° Northwest  Level Estimated
11:13PM -12.1607 -50.0235 322° Northwest  Level Estimated
11:14PM -12.0670 -50.0973 322° Northwest  Level Estimated
11:15PM -11.9733 -50.1710 322° Northwest  Level Estimated
11:16PM -11.8796 -50.2447 322° Northwest  Level Estimated
11:17PM -11.7859 -50.3183 322° Northwest  Level Estimated
11:18PM -11.6921 -50.3918 322° Northwest  Level Estimated
11:19PM -11.5983 -50.4654 322° Northwest  Level Estimated
11:20PM -11.5045 -50.5388 322° Northwest  Level Estimated
11:21PM -11.4107 -50.6123 323° Northwest  Level Estimated
11:22PM -11.3169 -50.6856 323° Northwest  Level Estimated
11:23PM -11.2230 -50.7589 323° Northwest  Level Estimated
11:24PM -11.1292 -50.8322 323° Northwest  Level Estimated
11:25PM -11.0353 -50.9055 323° Northwest  Level Estimated
11:26PM -10.9414 -50.9786 323° Northwest  Level Estimated
11:27PM -10.8475 -51.0518 323° Northwest  Level Estimated
11:28PM -10.7535 -51.1249 323° Northwest  Level Estimated
11:29PM -10.6596 -51.1979 323° Northwest  Level Estimated
11:30PM -10.5656 -51.2709 323° Northwest  Level Estimated
11:31PM -10.4716 -51.3439 323° Northwest  Level Estimated
11:32PM -10.3776 -51.4168 323° Northwest  Level Estimated
11:33PM -10.2836 -51.4897 323° Northwest  Level Estimated
11:34PM -10.1895 -51.5625 323° Northwest  Level Estimated
11:35PM -10.0955 -51.6353 323° Northwest  Level Estimated
11:36PM -10.0014 -51.7080 323° Northwest  Level Estimated
11:37PM -9.9073 -51.7807 323° Northwest  Level Estimated
11:38PM -9.8132 -51.8534 323° Northwest  Level Estimated
11:39PM -9.7191 -51.9260 323° Northwest  Level Estimated
11:40PM -9.6250 -51.9986 323° Northwest  Level Estimated
11:41PM -9.5308 -52.0711 323° Northwest  Level Estimated
11:42PM -9.4367 -52.1436 323° Northwest  Level Estimated
11:43PM -9.3425 -52.2160 323° Northwest  Level Estimated
11:44PM -9.2483 -52.2885 323° Northwest  Level Estimated
11:45PM -9.1541 -52.3608 323° Northwest  Level Estimated
11:46PM -9.0599 -52.4332 323° Northwest  Level Estimated
11:47PM -8.9656 -52.5055 323° Northwest  Level Estimated
11:48PM -8.8714 -52.5777 323° Northwest  Level Estimated
11:49PM -8.7771 -52.6500 323° Northwest  Level Estimated
11:50PM -8.6828 -52.7222 323° Northwest  Level Estimated
11:51PM -8.5885 -52.7943 323° Northwest  Level Estimated
11:52PM -8.4943 -52.8664 323° Northwest  Level Estimated
11:53PM -8.3999 -52.9385 323° Northwest  Level Estimated
11:54PM -8.3056 -53.0106 323° Northwest  Level Estimated
11:55PM -8.2113 -53.0826 323° Northwest  Level Estimated
11:56PM -8.1169 -53.1545 323° Northwest  Level Estimated
11:57PM -8.0225 -53.2265 323° Northwest  Level Estimated
11:58PM -7.9282 -53.2984 323° Northwest  Level Estimated
11:59PM -7.8338 -53.3703 323° Northwest  Level Estimated
12:00AM -7.7394 -53.4421 323° Northwest  Level Estimated
12:01AM -7.6449 -53.5139 323° Northwest  Level Estimated
12:02AM -7.5505 -53.5857 323° Northwest  Level Estimated
12:03AM -7.4561 -53.6575 323° Northwest  Level Estimated
12:04AM -7.3616 -53.7292 323° Northwest  Level Estimated
12:05AM -7.2672 -53.8009 323° Northwest  Level Estimated
12:06AM -7.1727 -53.8725 323° Northwest  Level Estimated
12:07AM -7.0782 -53.9442 323° Northwest  Level Estimated
12:08AM -6.9837 -54.0158 323° Northwest  Level Estimated
12:09AM -6.8892 -54.0873 323° Northwest  Level Estimated
12:10AM -6.7947 -54.1589 323° Northwest  Level Estimated
12:11AM -6.7001 -54.2304 323° Northwest  Level Estimated
12:12AM -6.6056 -54.3019 323° Northwest  Level Estimated
12:13AM -6.5111 -54.3733 323° Northwest  Level Estimated
12:14AM -6.4165 -54.4448 323° Northwest  Level Estimated
12:15AM -6.3219 -54.5162 323° Northwest  Level Estimated
12:16AM -6.2273 -54.5875 323° Northwest  Level Estimated
12:17AM -6.1328 -54.6589 323° Northwest  Level Estimated
12:18AM -6.0381 -54.7302 323° Northwest  Level Estimated
12:19AM -5.9435 -54.8015 323° Northwest  Level Estimated
12:20AM -5.8489 -54.8728 323° Northwest  Level Estimated
12:21AM -5.7543 -54.9440 323° Northwest  Level Estimated
12:22AM -5.6597 -55.0153 323° Northwest  Level Estimated
12:23AM -5.5650 -55.0865 323° Northwest  Level Estimated
12:24AM -5.4704 -55.1577 323° Northwest  Level Estimated
12:25AM -5.3757 -55.2288 323° Northwest  Level Estimated
12:26AM -5.2810 -55.3000 323° Northwest  Level Estimated
12:27AM -5.1864 -55.3711 323° Northwest  Level Estimated
12:28AM -5.0917 -55.4422 323° Northwest  Level Estimated
12:29AM -4.9970 -55.5133 323° Northwest  Level Estimated
12:30AM -4.9023 -55.5843 323° Northwest  Level Estimated
12:31AM -4.8076 -55.6554 323° Northwest  Level Estimated
12:32AM -4.7129 -55.7264 323° Northwest  Level Estimated
12:33AM -4.6182 -55.7974 323° Northwest  Level Estimated
12:34AM -4.5234 -55.8684 323° Northwest  Level Estimated
12:35AM -4.4287 -55.9393 323° Northwest  Level Estimated
12:36AM -4.3339 -56.0103 323° Northwest  Level Estimated
12:37AM -4.2392 -56.0812 323° Northwest  Level Estimated
12:38AM -4.1444 -56.1521 323° Northwest  Level Estimated
12:39AM -4.0497 -56.2230 323° Northwest  Level Estimated
12:40AM -3.9549 -56.2939 323° Northwest  Level Estimated
12:41AM -3.8601 -56.3647 323° Northwest  Level Estimated
12:42AM -3.7654 -56.4356 323° Northwest  Level Estimated
12:43AM -3.6706 -56.5064 323° Northwest  Level Estimated
12:44AM -3.5758 -56.5772 323° Northwest  Level Estimated
12:45AM -3.4810 -56.6480 323° Northwest  Level Estimated
12:46AM -3.3862 -56.7188 323° Northwest  Level Estimated
12:47AM -3.2914 -56.7895 323° Northwest  Level Estimated
12:48AM -3.1965 -56.8603 323° Northwest  Level Estimated
12:49AM -3.1017 -56.9310 323° Northwest  Level Estimated
12:50AM -3.0069 -57.0018 323° Northwest  Level Estimated
12:51AM -2.9121 -57.0725 323° Northwest  Level Estimated
12:52AM -2.8173 -57.1432 323° Northwest  Level Estimated
12:53AM -2.7224 -57.2138 323° Northwest  Level Estimated
12:54AM -2.6276 -57.2845 323° Northwest  Level Estimated
12:55AM -2.5327 -57.3552 323° Northwest  Level Estimated
12:56AM -2.4379 -57.4259 323° Northwest  Level Estimated
12:57AM -2.3430 -57.4965 323° Northwest  Level Estimated
12:58AM -2.2482 -57.5672 323° Northwest  Level Estimated
12:59AM -2.1533 -57.6378 323° Northwest  Level Estimated
01:00AM -2.0585 -57.7084 323° Northwest  Level Estimated
01:01AM -1.9636 -57.7790 323° Northwest  Level Estimated
01:02AM -1.8687 -57.8496 323° Northwest  Level Estimated
01:03AM -1.7739 -57.9202 323° Northwest  Level Estimated
01:04AM -1.6790 -57.9908 323° Northwest  Level Estimated
01:05AM -1.5841 -58.0614 323° Northwest  Level Estimated
01:06AM -1.4892 -58.1320 323° Northwest  Level Estimated
01:07AM -1.3944 -58.2025 323° Northwest  Level Estimated
01:08AM -1.2995 -58.2731 323° Northwest  Level Estimated
01:09AM -1.2046 -58.3437 323° Northwest  Level Estimated
01:10AM -1.1097 -58.4142 323° Northwest  Level Estimated
01:11AM -1.0148 -58.4848 323° Northwest  Level Estimated
01:12AM -0.9199 -58.5553 323° Northwest  Level Estimated
01:13AM -0.8250 -58.6259 323° Northwest  Level Estimated
01:14AM -0.7302 -58.6964 323° Northwest  Level Estimated
01:15AM -0.6353 -58.7669 323° Northwest  Level Estimated
01:16AM -0.5404 -58.8375 323° Northwest  Level Estimated
01:17AM -0.4455 -58.9080 323° Northwest  Level Estimated
01:18AM -0.3506 -58.9785 323° Northwest  Level Estimated
01:19AM -0.2557 -59.0491 323° Northwest  Level Estimated
01:20AM -0.1608 -59.1196 323° Northwest  Level Estimated
01:21AM -0.0659 -59.1901 323° Northwest  Level Estimated
01:22AM 0.0290 -59.2607 323° Northwest  Level Estimated
01:23AM 0.1239 -59.3312 323° Northwest  Level Estimated
01:24AM 0.2188 -59.4017 323° Northwest  Level Estimated
01:25AM 0.3137 -59.4722 323° Northwest  Level Estimated
01:26AM 0.4086 -59.5428 323° Northwest  Level Estimated
01:27AM 0.5035 -59.6133 323° Northwest  Level Estimated
01:28AM 0.5984 -59.6838 323° Northwest  Level Estimated
01:29AM 0.6933 -59.7544 323° Northwest  Level Estimated
01:30AM 0.7882 -59.8249 323° Northwest  Level Estimated
01:31AM 0.8831 -59.8955 323° Northwest  Level Estimated
01:32AM 0.9779 -59.9660 323° Northwest  Level Estimated
01:33AM 1.0728 -60.0365 323° Northwest  Level Estimated
01:34AM 1.1677 -60.1071 323° Northwest  Level Estimated
01:35AM 1.2626 -60.1777 323° Northwest  Level Estimated
01:36AM 1.3575 -60.2482 323° Northwest  Level Estimated
01:37AM 1.4524 -60.3188 323° Northwest  Level Estimated
01:38AM 1.5472 -60.3894 323° Northwest  Level Estimated
01:39AM 1.6421 -60.4599 323° Northwest  Level Estimated
01:40AM 1.7370 -60.5305 323° Northwest  Level Estimated
01:41AM 1.8319 -60.6011 323° Northwest  Level Estimated
01:42AM 1.9267 -60.6717 323° Northwest  Level Estimated
01:43AM 2.0216 -60.7423 323° Northwest  Level Estimated
01:44AM 2.1165 -60.8129 323° Northwest  Level Estimated
01:45AM 2.2113 -60.8836 323° Northwest  Level Estimated
01:46AM 2.3062 -60.9542 323° Northwest  Level Estimated
01:47AM 2.4010 -61.0249 323° Northwest  Level Estimated
01:48AM 2.4959 -61.0955 323° Northwest  Level Estimated
01:49AM 2.5907 -61.1662 323° Northwest  Level Estimated
01:50AM 2.6856 -61.2369 323° Northwest  Level Estimated
01:51AM 2.7804 -61.3076 323° Northwest  Level Estimated
01:52AM 2.8752 -61.3783 323° Northwest  Level Estimated
01:53AM 2.9701 -61.4490 323° Northwest  Level Estimated
01:54AM 3.0649 -61.5197 323° Northwest  Level Estimated
01:55AM 3.1597 -61.5904 323° Northwest  Level Estimated
01:56AM 3.2545 -61.6612 323° Northwest  Level Estimated
01:57AM 3.3493 -61.7319 323° Northwest  Level Estimated
01:58AM 3.4441 -61.8027 323° Northwest  Level Estimated
01:59AM 3.5389 -61.8735 323° Northwest  Level Estimated
02:00AM 3.6337 -61.9443 323° Northwest  Level Estimated
02:01AM 3.7285 -62.0151 323° Northwest  Level Estimated
02:02AM 3.8233 -62.0859 323° Northwest  Level Estimated
02:03AM 3.9181 -62.1568 323° Northwest  Level Estimated
02:04AM 4.0128 -62.2277 323° Northwest  Level Estimated
02:05AM 4.1076 -62.2985 323° Northwest  Level Estimated
02:06AM 4.2024 -62.3694 323° Northwest  Level Estimated
02:06AM 7.7310 -59.3530 323° Northwest 449 517 40,000  Level FlightAware
02:06AM 7.7920 -59.3940 326° Northwest 449 517 40,000  Level FlightAware
02:07AM 7.8650 -59.4410 327° Northwest 452 520 40,000  Level FlightAware
02:07AM 7.9240 -59.4800 327° Northwest 454 522 40,000  Level FlightAware
02:08AM 7.9760 -59.5140 327° Northwest 454 522 40,000  Level FlightAware
02:09AM 8.0490 -59.5620 327° Northwest 454 522 40,000  Level FlightAware
02:09AM 8.1140 -59.6050 327° Northwest 453 521 40,000  Level FlightAware
02:10AM 8.1870 -59.6530 327° Northwest 453 521 40,000  Level FlightAware
02:10AM 8.2380 -59.6870 327° Northwest 453 521 40,000  Level FlightAware
02:11AM 8.3250 -59.7440 327° Northwest 451 519 40,000  Level FlightAware
02:12AM 8.3880 -59.7860 327° Northwest 451 519 40,000  Level FlightAware
02:13AM 8.4560 -59.8310 327° Northwest 450 518 40,000  Level FlightAware
02:13AM 8.5200 -59.8730 327° Northwest 450 518 40,000  Level FlightAware
02:14AM 8.5820 -59.9150 326° Northwest 449 517 40,000  Level FlightAware
02:14AM 8.6390 -59.9520 327° Northwest 449 517 40,000  Level FlightAware
02:15AM 8.7020 -59.9940 327° Northwest 448 516 40,000  Level FlightAware
02:15AM 8.7630 -60.0350 326° Northwest 448 516 40,000  Level FlightAware
02:16AM 8.8230 -60.0750 327° Northwest 447 514 40,000  Level FlightAware
02:17AM 8.8860 -60.1160 327° Northwest 448 516 40,000  Level FlightAware
02:17AM 8.9470 -60.1610 324° Northwest 452 520 40,000  Level FlightAware
02:18AM 8.9990 -60.2030 321° Northwest 453 521 40,000  Level FlightAware
02:18AM 9.0530 -60.2470 321° Northwest 453 521 40,000  Level FlightAware
02:19AM 9.1170 -60.2980 322° Northwest 452 520 40,000  Level FlightAware
02:20AM 9.1760 -60.3460 321° Northwest 450 518 40,000  Level FlightAware
02:20AM 9.2270 -60.3870 322° Northwest 448 516 40,000  Level FlightAware
02:21AM 9.2860 -60.4340 322° Northwest 448 516 40,000  Level FlightAware
02:21AM 9.3450 -60.4820 321° Northwest 449 517 40,000  Level FlightAware
02:22AM 9.4040 -60.5300 321° Northwest 447 514 40,000  Level FlightAware
02:22AM 9.4550 -60.5710 322° Northwest 446 513 40,000  Level FlightAware
02:23AM 9.5160 -60.6210 321° Northwest 445 512 40,000  Level FlightAware
02:24AM 9.5740 -60.6670 322° Northwest 445 512 40,000  Level FlightAware
02:24AM 9.6260 -60.7090 321° Northwest 446 513 40,000  Level FlightAware
02:25AM 9.6850 -60.7570 321° Northwest 445 512 40,000  Level FlightAware
02:25AM 9.7420 -60.8040 321° Northwest 446 513 40,000  Level FlightAware
02:26AM 9.7940 -60.8460 321° Northwest 448 516 40,000  Level FlightAware
02:27AM 9.8550 -60.8950 322° Northwest 448 516 40,000  Level FlightAware
02:27AM 9.9140 -60.9430 321° Northwest 448 516 40,000  Level FlightAware
02:28AM 9.9660 -60.9850 321° Northwest 448 516 40,000  Level FlightAware
02:28AM 10.0240 -61.0320 321° Northwest 448 516 40,000  Level FlightAware
02:29AM 10.0830 -61.0800 321° Northwest 448 516 40,000  Level FlightAware
02:29AM 10.1350 -61.1220 322° Northwest 446 513 40,000  Level FlightAware
02:30AM 10.1910 -61.1680 321° Northwest 446 513 40,000  Level FlightAware
02:31AM 10.2530 -61.2180 322° Northwest 445 512 40,000  Level FlightAware
02:31AM 10.3050 -61.2610 321° Northwest 446 513 40,000  Level FlightAware
02:32AM 10.3630 -61.3080 321° Northwest 447 514 40,000  Level FlightAware
02:32AM 10.4210 -61.3550 321° Northwest 448 516 40,000  Level FlightAware
02:33AM 10.4810 -61.4010 323° Northwest 446 513 40,000  Level FlightAware
02:34AM 10.5370 -61.4350 329° Northwest 444 511 40,000  Level FlightAware
02:34AM 10.6020 -61.4730 330° Northwest 445 512 40,000  Level FlightAware
02:35AM 10.6650 -61.5110 329° Northwest 445 512 40,000  Level FlightAware
02:35AM 10.7290 -61.5490 330° Northwest 444 511 40,000  Level FlightAware
02:36AM 10.7870 -61.5830 330° Northwest 444 511 40,000  Level FlightAware
02:36AM 10.8510 -61.6220 329° Northwest 445 512 40,000  Level FlightAware
02:37AM 10.9130 -61.6590 330° Northwest 445 512 40,000  Level FlightAware
02:38AM 10.9750 -61.6960 330° Northwest 446 513 40,000  Level FlightAware
02:38AM 11.0410 -61.7350 330° Northwest 446 513 40,000  Level FlightAware
02:39AM 11.1010 -61.7710 330° Northwest 448 516 40,000  Level FlightAware
02:39AM 11.1610 -61.8070 330° Northwest 448 516 40,000  Level FlightAware
02:40AM 11.2260 -61.8460 330° Northwest 448 516 40,000  Level FlightAware
02:41AM 11.2910 -61.8850 330° Northwest 447 514 40,000  Level FlightAware
02:41AM 11.3480 -61.9190 330° Northwest 448 516 40,000  Level FlightAware
02:42AM 11.4120 -61.9570 330° Northwest 450 518 40,000  Level FlightAware
02:42AM 11.4770 -61.9970 329° Northwest 451 519 40,000  Level FlightAware
02:43AM 11.5420 -62.0360 330° Northwest 451 519 40,000  Level FlightAware
02:43AM 11.5980 -62.0690 330° Northwest 449 517 40,000  Level FlightAware
02:44AM 11.6640 -62.1090 329° Northwest 447 514 40,000  Level FlightAware
02:45AM 11.7280 -62.1470 330° Northwest 446 513 40,000  Level FlightAware
02:45AM 11.7930 -62.1870 329° Northwest 447 514 40,000  Level FlightAware
02:46AM 11.8530 -62.2230 330° Northwest 447 514 40,000  Level FlightAware
02:46AM 11.9170 -62.2610 330° Northwest 447 514 40,000  Level FlightAware
02:47AM 11.9750 -62.2960 329° Northwest 448 516 40,000  Level FlightAware
02:48AM 12.0400 -62.3350 330° Northwest 450 518 40,000  Level FlightAware
02:48AM 12.1040 -62.3740 329° Northwest 449 517 40,000  Level FlightAware
02:49AM 12.1680 -62.4130 329° Northwest 447 514 40,000  Level FlightAware
02:49AM 12.2250 -62.4470 330° Northwest 446 513 40,000  Level FlightAware
02:50AM 12.2910 -62.4870 329° Northwest 445 512 40,000  Level FlightAware
02:50AM 12.3510 -62.5230 330° Northwest 445 512 40,000  Level FlightAware
02:51AM 12.3680 -62.5330 330° Northwest 444 511 40,000  Level FlightAware
02:52AM 12.4270 -62.5690 329° Northwest 444 511 40,000  Level FlightAware
02:52AM 12.5560 -62.6470 329° Northwest 445 512 40,000  Level FlightAware
02:53AM 12.6120 -62.6810 329° Northwest 445 512 40,000  Level FlightAware
02:53AM 12.6750 -62.7200 329° Northwest 444 511 40,000  Level FlightAware
02:54AM 12.7350 -62.7560 330° Northwest 444 511 40,000  Level FlightAware
02:55AM 12.7900 -62.7890 330° Northwest 443 510 40,000  Level FlightAware
02:55AM 12.8830 -62.8460 329° Northwest 443 510 40,000  Level FlightAware
02:56AM 12.9410 -62.8820 329° Northwest 443 510 40,000  Level FlightAware
02:57AM 12.9980 -62.9170 329° Northwest 443 510 40,000  Level FlightAware
02:57AM 13.0520 -62.9500 329° Northwest 443 510 40,000  Level FlightAware
02:58AM 13.1060 -62.9830 329° Northwest 443 510 40,000  Level FlightAware
02:59AM 13.1610 -63.0170 329° Northwest 443 510 40,000  Level FlightAware
02:59AM 13.2120 -63.0490 329° Northwest 443 510 40,000  Level FlightAware
03:00AM 13.2650 -63.0820 329° Northwest 443 510 40,000  Level FlightAware
03:00AM 13.3190 -63.1150 329° Northwest 443 510 40,000  Level FlightAware
03:01AM 13.3730 -63.1480 329° Northwest 443 510 40,000  Level FlightAware
03:02AM 13.4270 -63.1810 329° Northwest 443 510 40,000  Level FlightAware
03:02AM 13.4820 -63.2150 329° Northwest 443 510 40,000  Level FlightAware
03:03AM 13.5360 -63.2490 329° Northwest 443 510 40,000  Level FlightAware
03:03AM 13.5900 -63.2820 329° Northwest 443 510 40,000  Level FlightAware
03:04AM 13.6430 -63.3150 329° Northwest 443 510 40,000  Level FlightAware
03:05AM 13.6970 -63.3480 329° Northwest 443 510 40,000  Level FlightAware
03:05AM 13.7510 -63.3820 329° Northwest 443 510 40,000  Level FlightAware
03:08AM 13.9286 -63.6020 310° West  Level Estimated
03:09AM 14.0042 -63.6958 310° West  Level Estimated
03:10AM 14.0797 -63.7896 310° West  Level Estimated
03:11AM 14.1551 -63.8834 310° West  Level Estimated
03:12AM 14.2305 -63.9774 310° West  Level Estimated
03:13AM 14.3059 -64.0713 310° West  Level Estimated
03:14AM 14.3813 -64.1654 310° West  Level Estimated
03:15AM 14.4566 -64.2595 310° West  Level Estimated
03:16AM 14.5318 -64.3537 310° West  Level Estimated
03:17AM 14.6071 -64.4479 310° West  Level Estimated
03:18AM 14.6823 -64.5422 310° West  Level Estimated
03:19AM 14.7575 -64.6366 309° West  Level Estimated
03:20AM 14.8326 -64.7310 309° West  Level Estimated
03:21AM 14.9076 -64.8255 309° West  Level Estimated
03:22AM 14.9827 -64.9201 309° West  Level Estimated
03:23AM 15.0577 -65.0147 309° West  Level Estimated
03:24AM 15.1327 -65.1094 309° West  Level Estimated
03:25AM 15.2076 -65.2042 309° West  Level Estimated
03:26AM 15.2825 -65.2990 309° West  Level Estimated
03:27AM 15.3573 -65.3939 309° West  Level Estimated
03:28AM 15.4321 -65.4889 309° West  Level Estimated
03:29AM 15.5069 -65.5839 309° West  Level Estimated
03:30AM 15.5816 -65.6790 309° West  Level Estimated
03:31AM 15.6563 -65.7742 309° West  Level Estimated
03:32AM 15.7310 -65.8694 309° West  Level Estimated
03:33AM 15.8056 -65.9647 309° West  Level Estimated
03:34AM 15.8801 -66.0601 309° West  Level Estimated
03:35AM 15.9546 -66.1556 309° West  Level Estimated
03:36AM 16.0291 -66.2511 309° West  Level Estimated
03:37AM 16.1035 -66.3467 309° West  Level Estimated
03:38AM 16.1779 -66.4424 309° West  Level Estimated
03:39AM 16.2523 -66.5381 309° West  Level Estimated
03:40AM 16.3266 -66.6339 309° West  Level Estimated
03:41AM 16.4009 -66.7298 309° West  Level Estimated
03:42AM 16.4751 -66.8258 309° West  Level Estimated
03:43AM 16.5493 -66.9218 309° West  Level Estimated
03:44AM 16.6234 -67.0179 309° West  Level Estimated
03:45AM 16.6975 -67.1141 309° West  Level Estimated
03:46AM 16.7715 -67.2103 309° West  Level Estimated
03:47AM 16.8455 -67.3067 309° West  Level Estimated
03:48AM 16.9195 -67.4031 309° West  Level Estimated
03:49AM 16.9934 -67.4996 309° West  Level Estimated
03:50AM 17.0672 -67.5961 309° West  Level Estimated
03:51AM 17.1411 -67.6927 309° West  Level Estimated
03:52AM 17.2148 -67.7895 309° West  Level Estimated
03:53AM 17.2885 -67.8863 309° West  Level Estimated
03:54AM 17.3622 -67.9831 309° West  Level Estimated
03:55AM 17.4359 -68.0801 309° West  Level Estimated
03:56AM 17.5094 -68.1771 309° West  Level Estimated
03:57AM 17.5830 -68.2742 308° West  Level Estimated
03:58AM 17.6565 -68.3714 308° West  Level Estimated
03:59AM 17.7299 -68.4686 308° West  Level Estimated
04:00AM 17.8033 -68.5660 308° West  Level Estimated
04:01AM 17.8766 -68.6634 308° West  Level Estimated
04:02AM 17.9499 -68.7609 308° West  Level Estimated
04:03AM 18.0232 -68.8585 308° West  Level Estimated
04:04AM 18.0964 -68.9561 308° West  Level Estimated
04:05AM 18.1695 -69.0539 308° West  Level Estimated
04:06AM 18.2426 -69.1517 308° West  Level Estimated
04:07AM 18.3157 -69.2496 308° West  Level Estimated
04:08AM 18.3887 -69.3476 308° West  Level Estimated
04:09AM 18.4617 -69.4456 308° West  Level Estimated
04:10AM 18.5345 -69.5438 308° West  Level Estimated
04:11AM 18.6074 -69.6421 308° West  Level Estimated
04:12AM 18.6802 -69.7404 308° West  Level Estimated
04:13AM 18.7536 -69.8397 308° West  Level Estimated
04:14AM 18.8270 -69.9391 308° West  Level Estimated
04:15AM 18.9003 -70.0386 308° West  Level Estimated
04:16AM 18.9737 -70.1384 308° West  Level Estimated
04:17AM 19.0471 -70.2383 308° West  Level Estimated
04:18AM 19.1204 -70.3382 308° West  Level Estimated
04:19AM 19.1936 -70.4383 308° West  Level Estimated
04:20AM 19.2668 -70.5384 308° West  Level Estimated
04:21AM 19.3400 -70.6386 308° West  Level Estimated
04:22AM 19.4130 -70.7389 308° West  Level Estimated
04:23AM 19.4860 -70.8393 308° West  Level Estimated
04:24AM 19.5590 -70.9398 308° West  Level Estimated
04:25AM 19.6319 -71.0404 308° West  Level Estimated
04:26AM 19.7048 -71.1410 308° West  Level Estimated
04:27AM 19.7776 -71.2418 308° West  Level Estimated
04:28AM 19.8503 -71.3426 307° West  Level Estimated
04:29AM 19.9230 -71.4436 307° West  Level Estimated
04:30AM 19.9956 -71.5446 307° West  Level Estimated
04:31AM 20.0682 -71.6457 307° West  Level Estimated
04:32AM 20.1407 -71.7470 307° West  Level Estimated
04:33AM 20.2132 -71.8483 307° West  Level Estimated
04:34AM 20.2856 -71.9497 307° West  Level Estimated
04:35AM 20.3579 -72.0512 307° West  Level Estimated
04:36AM 20.4302 -72.1528 307° West  Level Estimated
04:37AM 20.5024 -72.2545 307° West  Level Estimated
04:38AM 20.5746 -72.3563 307° West  Level Estimated
04:39AM 20.6469 -72.4585 307° West  Level Estimated
04:40AM 20.7192 -72.5608 307° West  Level Estimated
04:41AM 20.7914 -72.6632 307° West  Level Estimated
04:42AM 20.8636 -72.7657 307° West  Level Estimated
04:43AM 20.9356 -72.8683 307° West  Level Estimated
04:44AM 21.0077 -72.9710 307° West  Level Estimated
04:45AM 21.0797 -73.0738 307° West  Level Estimated
04:46AM 21.1516 -73.1767 307° West  Level Estimated
04:47AM 21.2234 -73.2797 307° West  Level Estimated
04:48AM 21.2952 -73.3828 307° West  Level Estimated
04:49AM 21.3669 -73.4860 307° West  Level Estimated
04:50AM 21.4387 -73.5896 307° West  Level Estimated
04:51AM 21.5105 -73.6932 307° West  Level Estimated
04:52AM 21.5822 -73.7970 307° West  Level Estimated
04:53AM 21.6538 -73.9008 307° West  Level Estimated
04:54AM 21.7254 -74.0048 307° West  Level Estimated
04:55AM 21.7969 -74.1088 307° West  Level Estimated
04:56AM 21.8683 -74.2130 306° West  Level Estimated
04:57AM 21.9397 -74.3173 306° West  Level Estimated
04:58AM 22.0110 -74.4216 306° West  Level Estimated
04:59AM 22.0822 -74.5261 306° West  Level Estimated
05:00AM 22.1534 -74.6307 306° West  Level Estimated
05:01AM 22.2245 -74.7354 306° West  Level Estimated
05:02AM 22.2956 -74.8402 306° West  Level Estimated
05:03AM 22.3665 -74.9451 306° West  Level Estimated
05:04AM 22.4374 -75.0501 306° West  Level Estimated
05:05AM 22.5083 -75.1552 306° West  Level Estimated
05:06AM 22.5790 -75.2604 306° West  Level Estimated
05:07AM 22.6497 -75.3658 306° West  Level Estimated
05:08AM 22.7204 -75.4712 306° West  Level Estimated
05:09AM 22.7909 -75.5768 306° West  Level Estimated
05:10AM 22.8614 -75.6824 306° West  Level Estimated
05:11AM 22.9318 -75.7882 306° West  Level Estimated
05:12AM 23.0022 -75.8941 306° West  Level Estimated
05:13AM 23.0725 -76.0001 306° West  Level Estimated
05:14AM 23.1427 -76.1062 306° West  Level Estimated
05:15AM 23.2128 -76.2124 306° West  Level Estimated
05:16AM 23.2829 -76.3187 306° West  Level Estimated
05:17AM 23.3529 -76.4251 306° West  Level Estimated
05:18AM 23.4228 -76.5317 306° West  Level Estimated
05:19AM 23.4926 -76.6382 306° West  Level Estimated
05:20AM 23.5623 -76.7448 306° West  Level Estimated
05:21AM 23.6319 -76.8516 305° West  Level Estimated
05:22AM 23.7014 -76.9585 305° West  Level Estimated
05:23AM 23.7709 -77.0654 305° West  Level Estimated
05:24AM 23.8403 -77.1725 305° West  Level Estimated
05:25AM 23.9096 -77.2797 305° West  Level Estimated
05:26AM 23.9789 -77.3871 305° West  Level Estimated
05:27AM 24.0481 -77.4945 305° West  Level Estimated
05:28AM 24.1172 -77.6021 305° West  Level Estimated
05:29AM 24.1862 -77.7097 305° West  Level Estimated
05:30AM 24.2551 -77.8175 305° West  Level Estimated
05:31AM 24.3240 -77.9255 305° West  Level Estimated
05:32AM 24.3928 -78.0335 305° West  Level Estimated
05:33AM 24.4615 -78.1416 305° West  Level Estimated
05:34AM 24.5302 -78.2499 305° West  Level Estimated
05:35AM 24.5988 -78.3583 305° West  Level Estimated
05:36AM 24.6673 -78.4668 305° West  Level Estimated
05:37AM 24.7357 -78.5754 305° West  Level Estimated
05:38AM 24.8040 -78.6841 305° West  Level Estimated
05:39AM 24.8723 -78.7930 305° West  Level Estimated
05:40AM 24.9404 -78.9019 305° West  Level Estimated
05:41AM 25.0085 -79.0110 305° West  Level Estimated
05:42AM 25.0766 -79.1203 305° West  Level Estimated
05:43AM 25.1445 -79.2296 304° West  Level Estimated
05:44AM 25.2124 -79.3391 304° West  Level Estimated
05:45AM 25.2801 -79.4486 304° West  Level Estimated
05:46AM 25.3478 -79.5584 304° West  Level Estimated
05:47AM 25.4154 -79.6682 304° West  Level Estimated
05:48AM 25.4830 -79.7781 304° West  Level Estimated
05:49AM 25.5504 -79.8882 304° West  Level Estimated
05:50AM 25.6178 -79.9984 304° West  Level Estimated
05:51AM 25.6851 -80.1087 304° West  Level Estimated
05:52AM 25.7523 -80.2192 304° West  Level Estimated
05:53AM 25.7954 -80.2901 304° West  Level Estimated
05:54AM 25.7954 -80.2901 318° Northwest  Level Estimated
05:55AM 25.7954 -80.2901 318° Northwest  Level Estimated
05:56AM 25.7954 -80.2901 318° Northwest  Level Estimated
05:57AM 25.7954 -80.2901 318° Northwest  Level Estimated
05:58AM 25.7954 -80.2901 318° Northwest  Level Estimated
05:59AM 25.7954 -80.2901 318° Northwest  Level Estimated